Redwood Natl Park, California
Current Conditions -  °F | °C
As of 7:56 AM on Thursday 27 Nov 2014 (Local Time) from KCEC Reporting Station
Clear Clear  
Wind Chill: 58°   Ceiling: Unl
Heat Index: 58°   Visibility: 10mi
Dew Point: 50°   Wind: 16mph
Humidity: 75%   Direction: 160°SSE
Pressure: 30.08"   Gusts: NA
Location:  41.48°N, 124.06°W
Report Text: KCEC 271556Z AUTO 16014KT 10SM CLR 14/10 A3008 RMK AO2 SLP184 T01440100
Loading
Personal Weather Stations






























Interactive Weather Map New forecast layout! Learn more

10-Day Weather Forecast

Advertisements
Track Severe Weather on mobile